Time,TemperatureF,DewpointF,PressureIn,WindDirection,WindDirectionDegrees,WindSpeedMPH,WindSpeedGustMPH,Humidity,HourlyPrecipIn,Conditions,Clouds,dailyrainin,SoftwareType,DateUTC
2013-03-28 00:04:00,41.2,13.0,30.19,South,173,6.0,11.0,32,0.00,,,0.00,weatherlink.com 1.10,2013-03-28 06:04:00,
2013-03-28 00:19:00,41.5,14.0,30.18,South,180,6.0,10.0,32,0.00,,,0.00,weatherlink.com 1.10,2013-03-28 06:19:00,
2013-03-28 00:34:00,41.4,13.0,30.18,South,171,6.0,9.0,31,0.00,,,0.00,weatherlink.com 1.10,2013-03-28 06:34:00,
2013-03-28 00:49:00,41.3,13.0,30.19,South,184,6.0,9.0,32,0.00,,,0.00,weatherlink.com 1.10,2013-03-28 06:49:00,
2013-03-28 01:04:00,41.1,13.0,30.19,South,182,7.0,9.0,32,0.00,,,0.00,weatherlink.com 1.10,2013-03-28 07:04:00,
2013-03-28 01:20:00,41.3,13.0,30.19,South,188,6.0,8.0,32,0.00,,,0.00,weatherlink.com 1.10,2013-03-28 07:20:00,
2013-03-28 01:35:00,41.0,14.0,30.19,South,178,4.0,8.0,33,0.00,,,0.00,weatherlink.com 1.10,2013-03-28 07:35:00,
2013-03-28 01:50:00,40.9,14.0,30.19,South,182,7.0,10.0,33,0.00,,,0.00,weatherlink.com 1.10,2013-03-28 07:50:00,
2013-03-28 02:05:00,40.6,14.0,30.19,South,186,4.0,7.0,34,0.00,,,0.00,weatherlink.com 1.10,2013-03-28 08:05:00,
2013-03-28 02:20:00,39.8,14.0,30.19,South,185,4.0,7.0,35,0.00,,,0.00,weatherlink.com 1.10,2013-03-28 08:20:00,
2013-03-28 02:35:00,39.4,14.0,30.19,South,182,6.0,8.0,35,0.00,,,0.00,weatherlink.com 1.10,2013-03-28 08:35:00,
2013-03-28 02:50:00,39.8,14.0,30.19,SSW,194,7.0,8.0,35,0.00,,,0.00,weatherlink.com 1.10,2013-03-28 08:50:00,
2013-03-28 03:05:00,40.4,15.0,30.19,South,184,5.0,8.0,35,0.00,,,0.00,weatherlink.com 1.10,2013-03-28 09:05:00,
2013-03-28 03:20:00,40.2,14.0,30.18,South,177,3.0,7.0,35,0.00,,,0.00,weatherlink.com 1.10,2013-03-28 09:20:00,
2013-03-28 03:35:00,39.6,15.0,30.18,SSW,195,6.0,7.0,36,0.00,,,0.00,weatherlink.com 1.10,2013-03-28 09:35:00,
2013-03-28 03:50:00,39.1,16.0,30.18,SSW,192,4.0,6.0,39,0.00,,,0.00,weatherlink.com 1.10,2013-03-28 09:50:00,
2013-03-28 04:05:00,38.8,16.0,30.19,SSW,194,1.0,4.0,39,0.00,,,0.00,weatherlink.com 1.10,2013-03-28 10:05:00,
2013-03-28 04:20:00,38.6,15.0,30.18,SSW,205,4.0,6.0,38,0.00,,,0.00,weatherlink.com 1.10,2013-03-28 10:20:00,
2013-03-28 04:35:00,38.7,15.0,30.18,South,180,1.0,7.0,38,0.00,,,0.00,weatherlink.com 1.10,2013-03-28 10:35:00,
2013-03-28 04:50:00,39.1,15.0,30.19,SW,216,5.0,7.0,37,0.00,,,0.00,weatherlink.com 1.10,2013-03-28 10:50:00,
2013-03-28 05:05:00,39.7,15.0,30.19,SW,221,4.0,7.0,36,0.00,,,0.00,weatherlink.com 1.10,2013-03-28 11:05:00,
2013-03-28 05:20:00,39.9,15.0,30.19,SW,217,2.0,5.0,37,0.00,,,0.00,weatherlink.com 1.10,2013-03-28 11:20:00,
2013-03-28 05:35:00,39.8,15.0,30.19,SW,232,4.0,6.0,37,0.00,,,0.00,weatherlink.com 1.10,2013-03-28 11:35:00,
2013-03-28 05:50:00,40.0,16.0,30.19,SW,227,2.0,8.0,38,0.00,,,0.00,weatherlink.com 1.10,2013-03-28 11:50:00,
2013-03-28 06:05:00,39.8,18.0,30.19,South,184,3.0,7.0,41,0.00,,,0.00,weatherlink.com 1.10,2013-03-28 12:05:00,
2013-03-28 06:20:00,39.7,18.0,30.19,South,191,3.0,5.0,41,0.00,,,0.00,weatherlink.com 1.10,2013-03-28 12:20:00,
2013-03-28 06:35:00,39.6,18.0,30.20,SSW,211,4.0,4.0,41,0.00,,,0.00,weatherlink.com 1.10,2013-03-28 12:35:00,
2013-03-28 06:50:00,40.2,19.0,30.20,SSE,159,3.0,7.0,42,0.00,,,0.00,weatherlink.com 1.10,2013-03-28 12:50:00,
2013-03-28 07:05:00,42.1,19.0,30.20,SSW,195,6.0,12.0,39,0.00,,,0.00,weatherlink.com 1.10,2013-03-28 13:05:00,
2013-03-28 07:20:00,43.2,20.0,30.21,SSE,155,4.0,12.0,39,0.00,,,0.00,weatherlink.com 1.10,2013-03-28 13:20:00,
2013-03-28 07:35:00,43.5,20.0,30.21,South,181,5.0,11.0,39,0.00,,,0.00,weatherlink.com 1.10,2013-03-28 13:35:00,
2013-03-28 07:50:00,43.6,21.0,30.21,South,171,3.0,5.0,40,0.00,,,0.00,weatherlink.com 1.10,2013-03-28 13:50:00,
2013-03-28 08:05:00,43.7,21.0,30.21,SSE,150,4.0,6.0,40,0.00,,,0.00,weatherlink.com 1.10,2013-03-28 14:05:00,
2013-03-28 08:20:00,44.2,20.0,30.21,SE,145,7.0,7.0,39,0.00,,,0.00,weatherlink.com 1.10,2013-03-28 14:20:00,
2013-03-28 08:35:00,44.8,20.0,30.21,SSE,159,2.0,5.0,37,0.00,,,0.00,weatherlink.com 1.10,2013-03-28 14:35:00,
2013-03-28 08:50:00,45.3,21.0,30.21,SSE,159,0.0,4.0,38,0.00,,,0.00,weatherlink.com 1.10,2013-03-28 14:50:00,
2013-03-28 09:05:00,45.8,20.0,30.21,SE,141,7.0,7.0,36,0.00,,,0.00,weatherlink.com 1.10,2013-03-28 15:05:00,
2013-03-28 09:20:00,47.3,21.0,30.21,SSE,150,2.0,6.0,35,0.00,,,0.00,weatherlink.com 1.10,2013-03-28 15:20:00,
2013-03-28 09:35:00,51.5,21.0,30.22,South,174,4.0,7.0,30,0.00,,,0.00,weatherlink.com 1.10,2013-03-28 15:35:00,
2013-03-28 09:50:00,52.0,20.0,30.22,SE,134,4.0,7.0,29,0.00,,,0.00,weatherlink.com 1.10,2013-03-28 15:50:00,
2013-03-28 10:05:00,53.3,22.0,30.22,WSW,246,3.0,6.0,29,0.00,,,0.00,weatherlink.com 1.10,2013-03-28 16:05:00,
2013-03-28 10:21:00,54.7,20.0,30.22,SW,231,4.0,12.0,26,0.00,,,0.00,weatherlink.com 1.10,2013-03-28 16:21:00,
2013-03-28 10:36:00,55.1,21.0,30.22,SW,221,4.0,17.0,26,0.00,,,0.00,weatherlink.com 1.10,2013-03-28 16:36:00,
2013-03-28 10:51:00,55.6,21.0,30.22,SSW,211,3.0,10.0,26,0.00,,,0.00,weatherlink.com 1.10,2013-03-28 16:51:00,
2013-03-28 11:06:00,55.7,20.0,30.22,SW,227,10.0,10.0,25,0.00,,,0.00,weatherlink.com 1.10,2013-03-28 17:06:00,
2013-03-28 11:21:00,56.6,20.0,30.22,West,259,1.0,8.0,24,0.00,,,0.00,weatherlink.com 1.10,2013-03-28 17:21:00,
2013-03-28 11:51:00,57.2,20.0,30.22,SSW,194,4.0,13.0,23,0.00,,,0.00,weatherlink.com 1.10,2013-03-28 17:51:00,
2013-03-28 12:36:00,57.1,17.0,30.21,South,188,5.0,10.0,21,0.00,,,0.00,weatherlink.com 1.10,2013-03-28 18:36:00,
2013-03-28 12:51:00,56.5,19.0,30.21,WNW,285,5.0,14.0,23,0.00,,,0.00,weatherlink.com 1.10,2013-03-28 18:51:00,
2013-03-28 13:06:00,57.4,16.0,30.21,West,264,8.0,16.0,20,0.00,,,0.00,weatherlink.com 1.10,2013-03-28 19:06:00,
2013-03-28 13:51:00,56.9,16.0,30.21,WNW,302,10.0,19.0,20,0.00,,,0.00,weatherlink.com 1.10,2013-03-28 19:51:00,
2013-03-28 15:06:00,57.7,17.0,30.20,WNW,295,3.0,14.0,20,0.00,,,0.00,weatherlink.com 1.10,2013-03-28 21:06:00,
2013-03-28 15:51:00,57.8,14.0,30.19,West,267,7.0,16.0,18,0.00,,,0.00,weatherlink.com 1.10,2013-03-28 21:51:00,
2013-03-28 16:06:00,57.6,13.0,30.19,WSW,247,5.0,16.0,17,0.00,,,0.00,weatherlink.com 1.10,2013-03-28 22:06:00,
2013-03-28 16:21:00,57.6,15.0,30.19,West,263,14.0,20.0,19,0.00,,,0.00,weatherlink.com 1.10,2013-03-28 22:21:00,
2013-03-28 16:36:00,56.9,14.0,30.19,NW,316,7.0,14.0,18,0.00,,,0.00,weatherlink.com 1.10,2013-03-28 22:36:00,
2013-03-28 16:51:00,56.2,17.0,30.19,WSW,248,3.0,15.0,21,0.00,,,0.00,weatherlink.com 1.10,2013-03-28 22:51:00,
2013-03-28 17:06:00,55.0,13.0,30.19,WSW,257,8.0,14.0,19,0.00,,,0.00,weatherlink.com 1.10,2013-03-28 23:06:00,
2013-03-28 17:21:00,55.5,15.0,30.19,West,279,4.0,12.0,20,0.00,,,0.00,weatherlink.com 1.10,2013-03-28 23:21:00,
2013-03-28 17:36:00,56.2,17.0,30.19,West,267,6.0,14.0,21,0.00,,,0.00,weatherlink.com 1.10,2013-03-28 23:36:00,
2013-03-28 18:06:00,54.0,18.0,30.20,West,260,10.0,12.0,24,0.00,,,0.00,weatherlink.com 1.10,2013-03-29 00:06:00,
2013-03-28 18:21:00,53.0,18.0,30.20,West,281,6.0,13.0,25,0.00,,,0.00,weatherlink.com 1.10,2013-03-29 00:21:00,
2013-03-28 18:36:00,52.3,19.0,30.20,West,278,6.0,10.0,27,0.00,,,0.00,weatherlink.com 1.10,2013-03-29 00:36:00,
2013-03-28 18:51:00,51.8,19.0,30.21,WSW,242,1.0,11.0,27,0.00,,,0.00,weatherlink.com 1.10,2013-03-29 00:51:00,
2013-03-28 19:06:00,51.2,18.0,30.21,SW,218,7.0,10.0,27,0.00,,,0.00,weatherlink.com 1.10,2013-03-29 01:06:00,
2013-03-28 19:21:00,50.3,18.0,30.21,West,265,5.0,8.0,28,0.00,,,0.00,weatherlink.com 1.10,2013-03-29 01:21:00,
2013-03-28 19:51:00,49.0,18.0,30.22,WSW,242,5.0,10.0,29,0.00,,,0.00,weatherlink.com 1.10,2013-03-29 01:51:00,
2013-03-28 20:06:00,48.5,17.0,30.22,SW,227,4.0,11.0,29,0.00,,,0.00,weatherlink.com 1.10,2013-03-29 02:06:00,
2013-03-28 20:21:00,48.3,18.0,30.22,WSW,237,8.0,11.0,30,0.00,,,0.00,weatherlink.com 1.10,2013-03-29 02:21:00,
2013-03-28 20:36:00,47.8,18.0,30.22,WSW,246,9.0,11.0,31,0.00,,,0.00,weatherlink.com 1.10,2013-03-29 02:36:00,
2013-03-28 21:06:00,47.6,17.0,30.22,SW,229,7.0,12.0,30,0.00,,,0.00,weatherlink.com 1.10,2013-03-29 03:06:00,
2013-03-28 21:21:00,47.3,18.0,30.23,SSW,207,6.0,10.0,31,0.00,,,0.00,weatherlink.com 1.10,2013-03-29 03:21:00,
2013-03-28 21:36:00,46.5,19.0,30.23,SW,216,6.0,6.0,33,0.00,,,0.00,weatherlink.com 1.10,2013-03-29 03:36:00,
2013-03-28 21:51:00,45.7,18.0,30.23,SSW,196,4.0,7.0,33,0.00,,,0.00,weatherlink.com 1.10,2013-03-29 03:51:00,
2013-03-28 22:06:00,45.0,17.0,30.24,SSW,202,4.0,6.0,33,0.00,,,0.00,weatherlink.com 1.10,2013-03-29 04:06:00,
2013-03-28 22:21:00,44.6,16.0,30.24,SSW,208,4.0,7.0,32,0.00,,,0.00,weatherlink.com 1.10,2013-03-29 04:21:00,
2013-03-28 22:36:00,44.3,17.0,30.24,SW,217,4.0,8.0,34,0.00,,,0.00,weatherlink.com 1.10,2013-03-29 04:36:00,
2013-03-28 22:51:00,43.8,18.0,30.24,SSW,212,4.0,7.0,35,0.00,,,0.00,weatherlink.com 1.10,2013-03-29 04:51:00,
2013-03-28 23:06:00,43.2,17.0,30.24,SW,224,5.0,6.0,35,0.00,,,0.00,weatherlink.com 1.10,2013-03-29 05:06:00,
2013-03-28 23:21:00,42.7,17.0,30.25,SW,218,5.0,6.0,36,0.00,,,0.00,weatherlink.com 1.10,2013-03-29 05:21:00,
2013-03-28 23:51:00,41.7,19.0,30.25,SW,225,3.0,4.0,41,0.00,,,0.00,weatherlink.com 1.10,2013-03-29 05:51:00,